sensor_id;sensor_type;location;lat;lon;timestamp;P1;durP1;ratioP1;P2;durP2;ratioP2
69629;SDS011;56857;52.212;5.496;2022-09-09T00:09:47;3.97;;;1.30;;
69629;SDS011;56857;52.212;5.496;2022-09-09T00:22:31;3.25;;;1.38;;
69629;SDS011;56857;52.212;5.496;2022-09-09T00:25:02;2.10;;;1.20;;
69629;SDS011;56857;52.212;5.496;2022-09-09T00:30:17;2.85;;;1.30;;
69629;SDS011;56857;52.212;5.496;2022-09-09T00:32:48;5.35;;;1.50;;
69629;SDS011;56857;52.212;5.496;2022-09-09T00:35:22;5.25;;;1.60;;
69629;SDS011;56857;52.212;5.496;2022-09-09T00:37:55;3.05;;;1.35;;
69629;SDS011;56857;52.212;5.496;2022-09-09T00:40:33;4.38;;;1.50;;
69629;SDS011;56857;52.212;5.496;2022-09-09T00:59:49;5.47;;;1.98;;
69629;SDS011;56857;52.212;5.496;2022-09-09T01:02:27;4.50;;;2.05;;
69629;SDS011;56857;52.212;5.496;2022-09-09T01:05:11;5.25;;;2.22;;
69629;SDS011;56857;52.212;5.496;2022-09-09T01:07:45;5.82;;;2.40;;
69629;SDS011;56857;52.212;5.496;2022-09-09T01:10:27;7.15;;;2.47;;
69629;SDS011;56857;52.212;5.496;2022-09-09T01:13:04;7.65;;;2.65;;
69629;SDS011;56857;52.212;5.496;2022-09-09T01:15:38;6.35;;;2.50;;
69629;SDS011;56857;52.212;5.496;2022-09-09T01:18:14;6.82;;;2.83;;
69629;SDS011;56857;52.212;5.496;2022-09-09T01:23:38;6.85;;;2.83;;
69629;SDS011;56857;52.212;5.496;2022-09-09T01:26:15;5.72;;;2.90;;
69629;SDS011;56857;52.212;5.496;2022-09-09T01:28:48;5.78;;;2.38;;
69629;SDS011;56857;52.212;5.496;2022-09-09T01:31:17;6.40;;;2.80;;
69629;SDS011;56857;52.212;5.496;2022-09-09T01:33:45;8.25;;;2.88;;
69629;SDS011;56857;52.212;5.496;2022-09-09T01:36:13;5.82;;;2.60;;
69629;SDS011;56857;52.212;5.496;2022-09-09T01:38:45;7.03;;;3.00;;
69629;SDS011;56857;52.212;5.496;2022-09-09T01:41:11;7.88;;;3.10;;
69629;SDS011;56857;52.212;5.496;2022-09-09T01:43:37;6.20;;;2.88;;
69629;SDS011;56857;52.212;5.496;2022-09-09T01:46:03;6.38;;;2.80;;
69629;SDS011;56857;52.212;5.496;2022-09-09T01:48:32;7.40;;;3.28;;
69629;SDS011;56857;52.212;5.496;2022-09-09T01:51:01;7.55;;;3.03;;
69629;SDS011;56857;52.212;5.496;2022-09-09T01:53:26;8.25;;;3.33;;
69629;SDS011;56857;52.212;5.496;2022-09-09T01:55:58;7.47;;;3.75;;
69629;SDS011;56857;52.212;5.496;2022-09-09T02:01:28;8.48;;;3.45;;
69629;SDS011;56857;52.212;5.496;2022-09-09T02:04:20;6.72;;;3.45;;
69629;SDS011;56857;52.212;5.496;2022-09-09T02:07:13;8.98;;;3.75;;
69629;SDS011;56857;52.212;5.496;2022-09-09T02:09:52;9.07;;;3.50;;
69629;SDS011;56857;52.212;5.496;2022-09-09T02:12:24;10.63;;;3.70;;
69629;SDS011;56857;52.212;5.496;2022-09-09T02:14:55;8.38;;;3.92;;
69629;SDS011;56857;52.212;5.496;2022-09-09T02:17:25;8.25;;;3.83;;
69629;SDS011;56857;52.212;5.496;2022-09-09T02:19:59;8.68;;;3.42;;
69629;SDS011;56857;52.212;5.496;2022-09-09T02:22:37;7.78;;;3.80;;
69629;SDS011;56857;52.212;5.496;2022-09-09T02:25:05;8.68;;;4.18;;
69629;SDS011;56857;52.212;5.496;2022-09-09T02:27:33;7.75;;;4.05;;
69629;SDS011;56857;52.212;5.496;2022-09-09T02:29:59;8.88;;;4.30;;
69629;SDS011;56857;52.212;5.496;2022-09-09T02:32:27;7.43;;;3.80;;
69629;SDS011;56857;52.212;5.496;2022-09-09T02:34:59;9.10;;;4.13;;
69629;SDS011;56857;52.212;5.496;2022-09-09T02:37:32;11.38;;;4.20;;
69629;SDS011;56857;52.212;5.496;2022-09-09T02:40:03;8.45;;;3.45;;
69629;SDS011;56857;52.212;5.496;2022-09-09T02:42:30;7.00;;;3.42;;
69629;SDS011;56857;52.212;5.496;2022-09-09T02:44:55;9.55;;;4.07;;
69629;SDS011;56857;52.212;5.496;2022-09-09T02:50:15;6.93;;;3.53;;
69629;SDS011;56857;52.212;5.496;2022-09-09T02:58:13;9.50;;;4.28;;
69629;SDS011;56857;52.212;5.496;2022-09-09T03:00:41;10.73;;;3.90;;
69629;SDS011;56857;52.212;5.496;2022-09-09T03:03:07;9.02;;;3.80;;
69629;SDS011;56857;52.212;5.496;2022-09-09T03:05:34;9.02;;;3.78;;
69629;SDS011;56857;52.212;5.496;2022-09-09T03:07:59;7.93;;;3.92;;
69629;SDS011;56857;52.212;5.496;2022-09-09T03:10:25;10.77;;;3.95;;
69629;SDS011;56857;52.212;5.496;2022-09-09T03:12:50;9.50;;;3.92;;
69629;SDS011;56857;52.212;5.496;2022-09-09T03:15:15;8.27;;;4.32;;
69629;SDS011;56857;52.212;5.496;2022-09-09T03:17:41;8.85;;;3.60;;
69629;SDS011;56857;52.212;5.496;2022-09-09T03:20:06;7.82;;;3.85;;
69629;SDS011;56857;52.212;5.496;2022-09-09T03:22:32;7.85;;;4.13;;
69629;SDS011;56857;52.212;5.496;2022-09-09T03:24:59;10.88;;;3.90;;
69629;SDS011;56857;52.212;5.496;2022-09-09T03:27:24;8.35;;;4.28;;
69629;SDS011;56857;52.212;5.496;2022-09-09T03:29:49;7.43;;;4.30;;
69629;SDS011;56857;52.212;5.496;2022-09-09T03:32:14;8.30;;;4.20;;
69629;SDS011;56857;52.212;5.496;2022-09-09T03:34:40;10.82;;;4.38;;
69629;SDS011;56857;52.212;5.496;2022-09-09T03:37:06;8.55;;;4.47;;
69629;SDS011;56857;52.212;5.496;2022-09-09T03:39:31;9.38;;;4.30;;
69629;SDS011;56857;52.212;5.496;2022-09-09T03:41:57;8.20;;;4.55;;
69629;SDS011;56857;52.212;5.496;2022-09-09T03:44:23;8.73;;;4.35;;
69629;SDS011;56857;52.212;5.496;2022-09-09T03:46:49;8.90;;;4.38;;
69629;SDS011;56857;52.212;5.496;2022-09-09T03:49:14;9.45;;;4.63;;
69629;SDS011;56857;52.212;5.496;2022-09-09T03:51:40;10.30;;;4.55;;
69629;SDS011;56857;52.212;5.496;2022-09-09T03:54:06;7.93;;;4.43;;
69629;SDS011;56857;52.212;5.496;2022-09-09T03:56:32;9.18;;;4.25;;
69629;SDS011;56857;52.212;5.496;2022-09-09T03:58:57;9.13;;;4.35;;
69629;SDS011;56857;52.212;5.496;2022-09-09T04:01:22;8.68;;;3.92;;
69629;SDS011;56857;52.212;5.496;2022-09-09T04:03:49;7.68;;;4.43;;
69629;SDS011;56857;52.212;5.496;2022-09-09T04:06:15;14.52;;;4.95;;
69629;SDS011;56857;52.212;5.496;2022-09-09T04:08:40;9.05;;;4.47;;
69629;SDS011;56857;52.212;5.496;2022-09-09T04:11:06;10.45;;;4.47;;
69629;SDS011;56857;52.212;5.496;2022-09-09T04:13:32;9.35;;;4.80;;
69629;SDS011;56857;52.212;5.496;2022-09-09T04:16:02;9.90;;;4.43;;
69629;SDS011;56857;52.212;5.496;2022-09-09T04:18:28;11.80;;;5.07;;
69629;SDS011;56857;52.212;5.496;2022-09-09T04:20:53;9.85;;;4.50;;
69629;SDS011;56857;52.212;5.496;2022-09-09T04:23:19;10.98;;;4.90;;
69629;SDS011;56857;52.212;5.496;2022-09-09T04:25:46;8.13;;;4.13;;
69629;SDS011;56857;52.212;5.496;2022-09-09T04:28:15;10.65;;;4.97;;
69629;SDS011;56857;52.212;5.496;2022-09-09T04:30:43;9.55;;;4.50;;
69629;SDS011;56857;52.212;5.496;2022-09-09T04:33:09;9.45;;;4.07;;
69629;SDS011;56857;52.212;5.496;2022-09-09T04:35:35;8.70;;;4.72;;
69629;SDS011;56857;52.212;5.496;2022-09-09T04:38:01;7.38;;;4.38;;
69629;SDS011;56857;52.212;5.496;2022-09-09T04:40:27;9.43;;;4.38;;
69629;SDS011;56857;52.212;5.496;2022-09-09T04:42:53;8.30;;;4.13;;
69629;SDS011;56857;52.212;5.496;2022-09-09T04:45:18;9.13;;;4.55;;
69629;SDS011;56857;52.212;5.496;2022-09-09T04:47:44;11.27;;;4.40;;
69629;SDS011;56857;52.212;5.496;2022-09-09T04:50:09;7.97;;;4.03;;
69629;SDS011;56857;52.212;5.496;2022-09-09T04:52:34;9.90;;;4.22;;
69629;SDS011;56857;52.212;5.496;2022-09-09T04:55:00;11.38;;;4.63;;
69629;SDS011;56857;52.212;5.496;2022-09-09T04:57:25;7.82;;;4.22;;
69629;SDS011;56857;52.212;5.496;2022-09-09T04:59:51;8.88;;;3.95;;
69629;SDS011;56857;52.212;5.496;2022-09-09T05:02:16;8.07;;;3.92;;
69629;SDS011;56857;52.212;5.496;2022-09-09T05:04:41;7.57;;;4.25;;
69629;SDS011;56857;52.212;5.496;2022-09-09T05:07:07;9.75;;;4.32;;
69629;SDS011;56857;52.212;5.496;2022-09-09T05:09:32;12.82;;;4.50;;
69629;SDS011;56857;52.212;5.496;2022-09-09T05:11:58;12.30;;;4.30;;
69629;SDS011;56857;52.212;5.496;2022-09-09T05:14:23;9.35;;;4.28;;
69629;SDS011;56857;52.212;5.496;2022-09-09T05:16:48;11.95;;;3.80;;
69629;SDS011;56857;52.212;5.496;2022-09-09T05:19:14;8.45;;;3.85;;
69629;SDS011;56857;52.212;5.496;2022-09-09T05:21:39;9.73;;;4.35;;
69629;SDS011;56857;52.212;5.496;2022-09-09T05:24:04;9.45;;;3.88;;
69629;SDS011;56857;52.212;5.496;2022-09-09T05:26:30;9.18;;;4.22;;
69629;SDS011;56857;52.212;5.496;2022-09-09T05:28:55;15.93;;;4.80;;
69629;SDS011;56857;52.212;5.496;2022-09-09T05:31:21;10.45;;;4.03;;
69629;SDS011;56857;52.212;5.496;2022-09-09T05:33:47;11.27;;;4.25;;
69629;SDS011;56857;52.212;5.496;2022-09-09T05:36:14;9.35;;;3.63;;
69629;SDS011;56857;52.212;5.496;2022-09-09T05:38:42;7.75;;;4.03;;
69629;SDS011;56857;52.212;5.496;2022-09-09T05:41:09;12.05;;;4.10;;
69629;SDS011;56857;52.212;5.496;2022-09-09T05:43:35;8.35;;;3.97;;
69629;SDS011;56857;52.212;5.496;2022-09-09T05:46:01;11.23;;;4.07;;
69629;SDS011;56857;52.212;5.496;2022-09-09T05:48:28;10.57;;;4.03;;
69629;SDS011;56857;52.212;5.496;2022-09-09T05:50:54;8.32;;;4.07;;
69629;SDS011;56857;52.212;5.496;2022-09-09T05:53:19;8.10;;;3.85;;
69629;SDS011;56857;52.212;5.496;2022-09-09T05:55:45;9.68;;;3.55;;
69629;SDS011;56857;52.212;5.496;2022-09-09T05:58:10;7.60;;;3.58;;
69629;SDS011;56857;52.212;5.496;2022-09-09T06:00:36;7.60;;;3.38;;
69629;SDS011;56857;52.212;5.496;2022-09-09T06:03:01;11.65;;;3.70;;
69629;SDS011;56857;52.212;5.496;2022-09-09T06:05:27;9.75;;;3.75;;
69629;SDS011;56857;52.212;5.496;2022-09-09T06:07:52;10.65;;;4.13;;
69629;SDS011;56857;52.212;5.496;2022-09-09T06:10:18;13.18;;;4.38;;
69629;SDS011;56857;52.212;5.496;2022-09-09T06:12:44;9.45;;;4.07;;
69629;SDS011;56857;52.212;5.496;2022-09-09T06:15:10;11.02;;;3.78;;
69629;SDS011;56857;52.212;5.496;2022-09-09T06:17:35;11.07;;;3.45;;
69629;SDS011;56857;52.212;5.496;2022-09-09T06:20:00;11.50;;;3.85;;
69629;SDS011;56857;52.212;5.496;2022-09-09T06:22:26;10.82;;;3.70;;
69629;SDS011;56857;52.212;5.496;2022-09-09T06:24:51;7.68;;;3.22;;
69629;SDS011;56857;52.212;5.496;2022-09-09T06:27:17;7.95;;;3.15;;
69629;SDS011;56857;52.212;5.496;2022-09-09T06:29:42;9.77;;;3.25;;
69629;SDS011;56857;52.212;5.496;2022-09-09T06:32:07;13.23;;;3.83;;
69629;SDS011;56857;52.212;5.496;2022-09-09T06:34:32;10.18;;;3.38;;
69629;SDS011;56857;52.212;5.496;2022-09-09T06:36:58;8.73;;;3.47;;
69629;SDS011;56857;52.212;5.496;2022-09-09T06:39:23;8.82;;;3.33;;
69629;SDS011;56857;52.212;5.496;2022-09-09T06:41:48;9.65;;;3.42;;
69629;SDS011;56857;52.212;5.496;2022-09-09T06:44:15;11.50;;;3.55;;
69629;SDS011;56857;52.212;5.496;2022-09-09T06:46:40;10.55;;;3.55;;
69629;SDS011;56857;52.212;5.496;2022-09-09T06:49:07;9.05;;;3.42;;
69629;SDS011;56857;52.212;5.496;2022-09-09T06:51:34;9.50;;;3.67;;
69629;SDS011;56857;52.212;5.496;2022-09-09T06:54:01;9.63;;;3.63;;
69629;SDS011;56857;52.212;5.496;2022-09-09T06:56:28;12.88;;;3.40;;
69629;SDS011;56857;52.212;5.496;2022-09-09T06:58:56;7.53;;;3.28;;
69629;SDS011;56857;52.212;5.496;2022-09-09T07:01:26;11.68;;;3.78;;
69629;SDS011;56857;52.212;5.496;2022-09-09T07:03:53;10.50;;;3.03;;
69629;SDS011;56857;52.212;5.496;2022-09-09T07:06:24;8.95;;;3.22;;
69629;SDS011;56857;52.212;5.496;2022-09-09T07:11:18;10.15;;;3.17;;
69629;SDS011;56857;52.212;5.496;2022-09-09T07:13:45;10.02;;;3.17;;
69629;SDS011;56857;52.212;5.496;2022-09-09T07:16:11;10.40;;;3.65;;
69629;SDS011;56857;52.212;5.496;2022-09-09T07:18:39;14.25;;;3.47;;
69629;SDS011;56857;52.212;5.496;2022-09-09T07:21:05;8.07;;;3.30;;
69629;SDS011;56857;52.212;5.496;2022-09-09T07:23:31;13.45;;;4.05;;
69629;SDS011;56857;52.212;5.496;2022-09-09T07:25:56;8.35;;;3.17;;
69629;SDS011;56857;52.212;5.496;2022-09-09T07:28:22;9.82;;;3.05;;
69629;SDS011;56857;52.212;5.496;2022-09-09T07:30:57;11.45;;;3.58;;
69629;SDS011;56857;52.212;5.496;2022-09-09T07:33:24;13.05;;;3.42;;
69629;SDS011;56857;52.212;5.496;2022-09-09T07:35:50;12.18;;;3.83;;
69629;SDS011;56857;52.212;5.496;2022-09-09T07:38:17;10.35;;;3.05;;
69629;SDS011;56857;52.212;5.496;2022-09-09T07:40:42;11.25;;;3.13;;
69629;SDS011;56857;52.212;5.496;2022-09-09T07:43:08;12.27;;;3.58;;
69629;SDS011;56857;52.212;5.496;2022-09-09T07:45:33;12.27;;;3.78;;
69629;SDS011;56857;52.212;5.496;2022-09-09T07:48:00;7.60;;;2.72;;
69629;SDS011;56857;52.212;5.496;2022-09-09T07:50:26;10.50;;;3.55;;
69629;SDS011;56857;52.212;5.496;2022-09-09T07:52:51;9.60;;;2.90;;
69629;SDS011;56857;52.212;5.496;2022-09-09T07:55:17;10.77;;;3.47;;
69629;SDS011;56857;52.212;5.496;2022-09-09T07:57:43;15.68;;;3.42;;
69629;SDS011;56857;52.212;5.496;2022-09-09T08:00:10;7.25;;;2.65;;
69629;SDS011;56857;52.212;5.496;2022-09-09T08:02:36;10.63;;;3.72;;
69629;SDS011;56857;52.212;5.496;2022-09-09T08:05:02;11.60;;;3.60;;
69629;SDS011;56857;52.212;5.496;2022-09-09T08:07:28;11.88;;;3.25;;
69629;SDS011;56857;52.212;5.496;2022-09-09T08:09:53;8.77;;;3.13;;
69629;SDS011;56857;52.212;5.496;2022-09-09T08:12:18;7.80;;;3.38;;
69629;SDS011;56857;52.212;5.496;2022-09-09T08:14:44;8.57;;;2.65;;
69629;SDS011;56857;52.212;5.496;2022-09-09T08:17:09;10.13;;;2.97;;
69629;SDS011;56857;52.212;5.496;2022-09-09T08:19:35;7.22;;;2.75;;
69629;SDS011;56857;52.212;5.496;2022-09-09T08:22:00;9.65;;;3.35;;
69629;SDS011;56857;52.212;5.496;2022-09-09T08:24:26;12.43;;;3.03;;
69629;SDS011;56857;52.212;5.496;2022-09-09T08:26:52;11.27;;;2.90;;
69629;SDS011;56857;52.212;5.496;2022-09-09T08:29:18;10.70;;;2.90;;
69629;SDS011;56857;52.212;5.496;2022-09-09T08:31:44;9.90;;;2.90;;
69629;SDS011;56857;52.212;5.496;2022-09-09T08:34:12;10.43;;;2.80;;
69629;SDS011;56857;52.212;5.496;2022-09-09T08:36:42;7.45;;;2.50;;
69629;SDS011;56857;52.212;5.496;2022-09-09T08:39:10;8.23;;;2.65;;
69629;SDS011;56857;52.212;5.496;2022-09-09T08:55:27;11.75;;;3.03;;
69629;SDS011;56857;52.212;5.496;2022-09-09T08:57:55;10.93;;;3.10;;
69629;SDS011;56857;52.212;5.496;2022-09-09T09:00:23;8.23;;;2.63;;
69629;SDS011;56857;52.212;5.496;2022-09-09T09:05:50;9.35;;;2.92;;
69629;SDS011;56857;52.212;5.496;2022-09-09T09:11:09;11.23;;;2.83;;
69629;SDS011;56857;52.212;5.496;2022-09-09T09:13:43;10.32;;;2.67;;
69629;SDS011;56857;52.212;5.496;2022-09-09T09:19:23;12.52;;;3.25;;
69629;SDS011;56857;52.212;5.496;2022-09-09T09:30:21;8.63;;;2.63;;
69629;SDS011;56857;52.212;5.496;2022-09-09T09:32:54;11.15;;;2.63;;
69629;SDS011;56857;52.212;5.496;2022-09-09T09:35:23;7.60;;;2.97;;
69629;SDS011;56857;52.212;5.496;2022-09-09T09:37:48;9.15;;;2.65;;
69629;SDS011;56857;52.212;5.496;2022-09-09T09:40:15;12.40;;;2.92;;
69629;SDS011;56857;52.212;5.496;2022-09-09T09:42:52;11.30;;;2.95;;
69629;SDS011;56857;52.212;5.496;2022-09-09T09:45:33;9.93;;;3.03;;
69629;SDS011;56857;52.212;5.496;2022-09-09T09:48:09;12.55;;;2.95;;
69629;SDS011;56857;52.212;5.496;2022-09-09T09:50:39;12.02;;;3.17;;
69629;SDS011;56857;52.212;5.496;2022-09-09T09:53:24;7.82;;;2.58;;
69629;SDS011;56857;52.212;5.496;2022-09-09T09:55:52;7.93;;;2.55;;
69629;SDS011;56857;52.212;5.496;2022-09-09T09:58:21;10.73;;;2.63;;
69629;SDS011;56857;52.212;5.496;2022-09-09T10:00:47;18.95;;;2.63;;
69629;SDS011;56857;52.212;5.496;2022-09-09T10:03:31;9.48;;;2.72;;
69629;SDS011;56857;52.212;5.496;2022-09-09T10:06:00;13.50;;;3.15;;
69629;SDS011;56857;52.212;5.496;2022-09-09T10:08:26;8.77;;;2.85;;
69629;SDS011;56857;52.212;5.496;2022-09-09T10:16:27;9.48;;;2.70;;
69629;SDS011;56857;52.212;5.496;2022-09-09T10:18:59;10.27;;;2.45;;
69629;SDS011;56857;52.212;5.496;2022-09-09T10:27:32;9.93;;;2.28;;
69629;SDS011;56857;52.212;5.496;2022-09-09T10:30:10;10.00;;;2.60;;
69629;SDS011;56857;52.212;5.496;2022-09-09T11:00:02;8.15;;;2.63;;
69629;SDS011;56857;52.212;5.496;2022-09-09T11:02:32;8.60;;;2.80;;
69629;SDS011;56857;52.212;5.496;2022-09-09T11:07:34;13.13;;;2.83;;
69629;SDS011;56857;52.212;5.496;2022-09-09T11:10:07;10.18;;;3.08;;
69629;SDS011;56857;52.212;5.496;2022-09-09T11:12:43;7.70;;;2.58;;
69629;SDS011;56857;52.212;5.496;2022-09-09T11:15:24;7.20;;;2.60;;
69629;SDS011;56857;52.212;5.496;2022-09-09T11:17:56;11.57;;;3.00;;
69629;SDS011;56857;52.212;5.496;2022-09-09T11:20:26;11.20;;;2.88;;
69629;SDS011;56857;52.212;5.496;2022-09-09T11:22:53;8.10;;;3.35;;
69629;SDS011;56857;52.212;5.496;2022-09-09T11:39:11;8.63;;;2.55;;
69629;SDS011;56857;52.212;5.496;2022-09-09T11:41:38;9.45;;;3.10;;
69629;SDS011;56857;52.212;5.496;2022-09-09T11:44:11;9.38;;;2.50;;
69629;SDS011;56857;52.212;5.496;2022-09-09T11:46:41;9.85;;;2.65;;
69629;SDS011;56857;52.212;5.496;2022-09-09T11:49:24;7.78;;;2.65;;
69629;SDS011;56857;52.212;5.496;2022-09-09T11:52:34;9.80;;;2.70;;
69629;SDS011;56857;52.212;5.496;2022-09-09T11:55:00;6.70;;;2.30;;
69629;SDS011;56857;52.212;5.496;2022-09-09T11:57:48;9.52;;;2.45;;
69629;SDS011;56857;52.212;5.496;2022-09-09T12:05:58;8.93;;;2.60;;
69629;SDS011;56857;52.212;5.496;2022-09-09T12:08:26;6.68;;;2.42;;
69629;SDS011;56857;52.212;5.496;2022-09-09T12:10:54;6.10;;;2.33;;
69629;SDS011;56857;52.212;5.496;2022-09-09T12:13:23;7.25;;;2.90;;
69629;SDS011;56857;52.212;5.496;2022-09-09T12:15:53;9.27;;;2.58;;
69629;SDS011;56857;52.212;5.496;2022-09-09T12:18:36;7.97;;;2.63;;
69629;SDS011;56857;52.212;5.496;2022-09-09T12:21:06;9.30;;;2.72;;
69629;SDS011;56857;52.212;5.496;2022-09-09T12:23:35;9.93;;;2.90;;
69629;SDS011;56857;52.212;5.496;2022-09-09T12:29:06;7.90;;;2.65;;
69629;SDS011;56857;52.212;5.496;2022-09-09T12:39:57;7.85;;;3.00;;
69629;SDS011;56857;52.212;5.496;2022-09-09T12:42:25;8.40;;;3.53;;
69629;SDS011;56857;52.212;5.496;2022-09-09T12:44:52;7.90;;;2.90;;
69629;SDS011;56857;52.212;5.496;2022-09-09T12:47:19;10.10;;;2.72;;
69629;SDS011;56857;52.212;5.496;2022-09-09T12:49:49;8.23;;;3.10;;
69629;SDS011;56857;52.212;5.496;2022-09-09T12:55:02;7.40;;;3.05;;
69629;SDS011;56857;52.212;5.496;2022-09-09T12:57:34;5.72;;;2.70;;
69629;SDS011;56857;52.212;5.496;2022-09-09T13:00:20;12.85;;;4.32;;
69629;SDS011;56857;52.212;5.496;2022-09-09T13:02:57;7.80;;;2.72;;
69629;SDS011;56857;52.212;5.496;2022-09-09T13:05:25;6.53;;;2.95;;
69629;SDS011;56857;52.212;5.496;2022-09-09T13:08:00;7.20;;;2.95;;
69629;SDS011;56857;52.212;5.496;2022-09-09T13:10:34;9.68;;;2.97;;
69629;SDS011;56857;52.212;5.496;2022-09-09T13:13:14;9.20;;;3.05;;
69629;SDS011;56857;52.212;5.496;2022-09-09T13:15:56;6.22;;;2.55;;
69629;SDS011;56857;52.212;5.496;2022-09-09T13:18:24;8.43;;;2.72;;
69629;SDS011;56857;52.212;5.496;2022-09-09T13:20:52;9.90;;;3.05;;
69629;SDS011;56857;52.212;5.496;2022-09-09T13:23:19;11.52;;;3.47;;
69629;SDS011;56857;52.212;5.496;2022-09-09T13:26:53;7.28;;;3.15;;
69629;SDS011;56857;52.212;5.496;2022-09-09T13:28:50;6.70;;;2.55;;
69629;SDS011;56857;52.212;5.496;2022-09-09T13:31:21;11.82;;;2.83;;
69629;SDS011;56857;52.212;5.496;2022-09-09T13:36:13;7.07;;;2.23;;
69629;SDS011;56857;52.212;5.496;2022-09-09T13:38:52;10.15;;;3.08;;
69629;SDS011;56857;52.212;5.496;2022-09-09T13:41:22;8.13;;;2.60;;
69629;SDS011;56857;52.212;5.496;2022-09-09T13:43:50;7.85;;;2.70;;
69629;SDS011;56857;52.212;5.496;2022-09-09T13:46:36;6.25;;;2.65;;
69629;SDS011;56857;52.212;5.496;2022-09-09T13:54:05;7.85;;;2.95;;
69629;SDS011;56857;52.212;5.496;2022-09-09T13:56:33;8.20;;;3.05;;
69629;SDS011;56857;52.212;5.496;2022-09-09T13:58:59;10.65;;;3.03;;
69629;SDS011;56857;52.212;5.496;2022-09-09T14:01:24;9.20;;;2.63;;
69629;SDS011;56857;52.212;5.496;2022-09-09T14:03:49;8.45;;;2.95;;
69629;SDS011;56857;52.212;5.496;2022-09-09T14:06:15;8.43;;;2.92;;
69629;SDS011;56857;52.212;5.496;2022-09-09T14:08:40;8.27;;;3.03;;
69629;SDS011;56857;52.212;5.496;2022-09-09T14:11:07;9.80;;;3.13;;
69629;SDS011;56857;52.212;5.496;2022-09-09T14:16:03;6.68;;;2.70;;
69629;SDS011;56857;52.212;5.496;2022-09-09T14:18:29;8.32;;;2.72;;
69629;SDS011;56857;52.212;5.496;2022-09-09T14:20:55;7.43;;;2.83;;
69629;SDS011;56857;52.212;5.496;2022-09-09T14:23:20;8.45;;;2.90;;
69629;SDS011;56857;52.212;5.496;2022-09-09T14:25:45;8.18;;;2.50;;
69629;SDS011;56857;52.212;5.496;2022-09-09T14:28:17;8.38;;;2.80;;
69629;SDS011;56857;52.212;5.496;2022-09-09T14:30:44;7.68;;;2.78;;
69629;SDS011;56857;52.212;5.496;2022-09-09T14:33:10;7.70;;;2.88;;
69629;SDS011;56857;52.212;5.496;2022-09-09T14:35:37;7.35;;;2.78;;
69629;SDS011;56857;52.212;5.496;2022-09-09T14:38:03;8.30;;;2.72;;
69629;SDS011;56857;52.212;5.496;2022-09-09T14:40:29;9.43;;;2.97;;
69629;SDS011;56857;52.212;5.496;2022-09-09T14:42:54;8.05;;;3.30;;
69629;SDS011;56857;52.212;5.496;2022-09-09T14:45:20;7.45;;;2.55;;
69629;SDS011;56857;52.212;5.496;2022-09-09T14:47:45;7.88;;;3.05;;
69629;SDS011;56857;52.212;5.496;2022-09-09T14:50:10;8.93;;;2.90;;
69629;SDS011;56857;52.212;5.496;2022-09-09T14:52:36;6.95;;;3.20;;
69629;SDS011;56857;52.212;5.496;2022-09-09T14:55:01;9.05;;;2.97;;
69629;SDS011;56857;52.212;5.496;2022-09-09T14:57:26;5.65;;;2.85;;
69629;SDS011;56857;52.212;5.496;2022-09-09T14:59:51;9.50;;;3.10;;
69629;SDS011;56857;52.212;5.496;2022-09-09T15:02:17;8.13;;;2.90;;
69629;SDS011;56857;52.212;5.496;2022-09-09T15:04:42;7.57;;;3.22;;
69629;SDS011;56857;52.212;5.496;2022-09-09T15:07:07;7.07;;;2.78;;
69629;SDS011;56857;52.212;5.496;2022-09-09T15:09:33;9.23;;;3.22;;
69629;SDS011;56857;52.212;5.496;2022-09-09T15:11:58;7.03;;;3.22;;
69629;SDS011;56857;52.212;5.496;2022-09-09T15:14:23;7.95;;;3.20;;
69629;SDS011;56857;52.212;5.496;2022-09-09T15:16:49;7.57;;;3.10;;
69629;SDS011;56857;52.212;5.496;2022-09-09T15:19:14;10.77;;;3.78;;
69629;SDS011;56857;52.212;5.496;2022-09-09T15:21:39;8.98;;;3.65;;
69629;SDS011;56857;52.212;5.496;2022-09-09T15:24:05;9.02;;;3.50;;
69629;SDS011;56857;52.212;5.496;2022-09-09T15:26:30;14.05;;;3.55;;
69629;SDS011;56857;52.212;5.496;2022-09-09T15:28:56;9.35;;;3.83;;
69629;SDS011;56857;52.212;5.496;2022-09-09T15:31:24;8.48;;;3.78;;
69629;SDS011;56857;52.212;5.496;2022-09-09T15:33:55;8.90;;;3.42;;
69629;SDS011;56857;52.212;5.496;2022-09-09T15:36:23;8.07;;;3.47;;
69629;SDS011;56857;52.212;5.496;2022-09-09T15:38:50;8.05;;;3.10;;
69629;SDS011;56857;52.212;5.496;2022-09-09T15:41:17;7.60;;;3.17;;
69629;SDS011;56857;52.212;5.496;2022-09-09T15:43:47;7.57;;;2.83;;
69629;SDS011;56857;52.212;5.496;2022-09-09T15:48:42;5.30;;;2.08;;
69629;SDS011;56857;52.212;5.496;2022-09-09T15:51:07;5.13;;;1.83;;
69629;SDS011;56857;52.212;5.496;2022-09-09T15:53:33;5.55;;;1.98;;
69629;SDS011;56857;52.212;5.496;2022-09-09T15:55:58;6.88;;;2.00;;
69629;SDS011;56857;52.212;5.496;2022-09-09T15:58:23;6.82;;;2.05;;
69629;SDS011;56857;52.212;5.496;2022-09-09T16:00:49;5.75;;;1.63;;
69629;SDS011;56857;52.212;5.496;2022-09-09T16:03:14;4.38;;;1.80;;
69629;SDS011;56857;52.212;5.496;2022-09-09T16:05:39;5.50;;;1.95;;
69629;SDS011;56857;52.212;5.496;2022-09-09T16:08:05;6.70;;;2.10;;
69629;SDS011;56857;52.212;5.496;2022-09-09T16:10:30;4.15;;;1.95;;
69629;SDS011;56857;52.212;5.496;2022-09-09T16:12:55;7.13;;;1.90;;
69629;SDS011;56857;52.212;5.496;2022-09-09T16:15:21;7.13;;;2.28;;
69629;SDS011;56857;52.212;5.496;2022-09-09T16:17:46;7.07;;;1.83;;
69629;SDS011;56857;52.212;5.496;2022-09-09T16:20:12;6.97;;;2.20;;
69629;SDS011;56857;52.212;5.496;2022-09-09T16:22:37;6.50;;;2.08;;
69629;SDS011;56857;52.212;5.496;2022-09-09T16:25:02;5.97;;;2.00;;
69629;SDS011;56857;52.212;5.496;2022-09-09T16:27:28;5.13;;;2.05;;
69629;SDS011;56857;52.212;5.496;2022-09-09T16:29:53;7.22;;;2.13;;
69629;SDS011;56857;52.212;5.496;2022-09-09T16:32:19;6.45;;;2.25;;
69629;SDS011;56857;52.212;5.496;2022-09-09T16:34:44;6.55;;;2.40;;
69629;SDS011;56857;52.212;5.496;2022-09-09T16:37:09;6.68;;;2.30;;
69629;SDS011;56857;52.212;5.496;2022-09-09T16:39:35;6.65;;;2.33;;
69629;SDS011;56857;52.212;5.496;2022-09-09T16:42:00;5.30;;;2.00;;
69629;SDS011;56857;52.212;5.496;2022-09-09T16:44:25;6.60;;;2.13;;
69629;SDS011;56857;52.212;5.496;2022-09-09T16:46:53;6.95;;;2.25;;
69629;SDS011;56857;52.212;5.496;2022-09-09T16:49:18;5.32;;;1.90;;
69629;SDS011;56857;52.212;5.496;2022-09-09T16:51:49;5.47;;;2.10;;
69629;SDS011;56857;52.212;5.496;2022-09-09T16:54:16;5.78;;;2.03;;
69629;SDS011;56857;52.212;5.496;2022-09-09T16:56:42;7.00;;;2.10;;
69629;SDS011;56857;52.212;5.496;2022-09-09T16:59:10;9.65;;;2.38;;
69629;SDS011;56857;52.212;5.496;2022-09-09T17:01:40;5.35;;;1.98;;
69629;SDS011;56857;52.212;5.496;2022-09-09T17:04:09;5.22;;;1.90;;
69629;SDS011;56857;52.212;5.496;2022-09-09T17:06:36;5.10;;;1.90;;
69629;SDS011;56857;52.212;5.496;2022-09-09T17:09:03;5.75;;;2.28;;
69629;SDS011;56857;52.212;5.496;2022-09-09T17:11:32;6.75;;;1.98;;
69629;SDS011;56857;52.212;5.496;2022-09-09T17:13:57;6.95;;;2.17;;
69629;SDS011;56857;52.212;5.496;2022-09-09T17:16:25;6.18;;;2.30;;
69629;SDS011;56857;52.212;5.496;2022-09-09T17:18:53;5.82;;;2.17;;
69629;SDS011;56857;52.212;5.496;2022-09-09T17:21:19;9.15;;;2.70;;
69629;SDS011;56857;52.212;5.496;2022-09-09T17:23:47;7.22;;;2.50;;
69629;SDS011;56857;52.212;5.496;2022-09-09T17:26:13;6.80;;;2.42;;
69629;SDS011;56857;52.212;5.496;2022-09-09T17:28:40;10.07;;;2.50;;
69629;SDS011;56857;52.212;5.496;2022-09-09T17:31:07;8.20;;;3.08;;
69629;SDS011;56857;52.212;5.496;2022-09-09T17:33:34;8.25;;;2.95;;
69629;SDS011;56857;52.212;5.496;2022-09-09T17:36:01;8.02;;;2.60;;
69629;SDS011;56857;52.212;5.496;2022-09-09T17:38:35;7.03;;;2.70;;
69629;SDS011;56857;52.212;5.496;2022-09-09T17:41:02;8.20;;;2.97;;
69629;SDS011;56857;52.212;5.496;2022-09-09T17:43:27;7.13;;;2.70;;
69629;SDS011;56857;52.212;5.496;2022-09-09T17:45:54;6.95;;;2.55;;